sensor_id;sensor_type;location;lat;lon;timestamp;pressure;altitude;pressure_sealevel;temperature;humidity
73106;BME280;61559;50.476;15.588;2022-11-15T00:01:00;97847.83;;;0.20;87.65
73106;BME280;61559;50.476;15.588;2022-11-15T00:03:31;97847.42;;;0.21;87.65
73106;BME280;61559;50.476;15.588;2022-11-15T00:06:04;97842.25;;;0.24;87.60
73106;BME280;61559;50.476;15.588;2022-11-15T00:08:35;97841.89;;;0.27;87.62
73106;BME280;61559;50.476;15.588;2022-11-15T00:11:08;97838.67;;;0.28;87.58
73106;BME280;61559;50.476;15.588;2022-11-15T00:13:40;97833.56;;;0.29;87.66
73106;BME280;61559;50.476;15.588;2022-11-15T00:16:11;97825.95;;;0.31;87.71
73106;BME280;61559;50.476;15.588;2022-11-15T00:18:43;97825.36;;;0.36;87.79
73106;BME280;61559;50.476;15.588;2022-11-15T00:21:19;97823.36;;;0.42;87.73
73106;BME280;61559;50.476;15.588;2022-11-15T00:23:50;97824.41;;;0.45;87.40
73106;BME280;61559;50.476;15.588;2022-11-15T00:26:21;97822.20;;;0.49;87.51
73106;BME280;61559;50.476;15.588;2022-11-15T00:28:54;97827.42;;;0.53;87.67
73106;BME280;61559;50.476;15.588;2022-11-15T00:31:25;97824.74;;;0.58;87.51
73106;BME280;61559;50.476;15.588;2022-11-15T00:33:55;97820.42;;;0.61;87.39
73106;BME280;61559;50.476;15.588;2022-11-15T00:36:26;97819.23;;;0.62;87.35
73106;BME280;61559;50.476;15.588;2022-11-15T00:38:57;97821.92;;;0.59;87.21
73106;BME280;61559;50.476;15.588;2022-11-15T00:41:28;97820.33;;;0.57;87.02
73106;BME280;61559;50.476;15.588;2022-11-15T00:43:59;97822.36;;;0.53;87.03
73106;BME280;61559;50.476;15.588;2022-11-15T00:46:30;97825.35;;;0.54;87.39
73106;BME280;61559;50.476;15.588;2022-11-15T00:49:01;97821.10;;;0.54;87.20
73106;BME280;61559;50.476;15.588;2022-11-15T00:51:32;97820.70;;;0.54;87.05
73106;BME280;61559;50.476;15.588;2022-11-15T00:54:06;97819.74;;;0.55;87.20
73106;BME280;61559;50.476;15.588;2022-11-15T00:56:37;97817.40;;;0.55;87.14
73106;BME280;61559;50.476;15.588;2022-11-15T00:59:08;97820.46;;;0.56;86.96
73106;BME280;61559;50.476;15.588;2022-11-15T01:01:39;97817.52;;;0.56;86.77
73106;BME280;61559;50.476;15.588;2022-11-15T01:04:10;97814.38;;;0.55;86.62
73106;BME280;61559;50.476;15.588;2022-11-15T01:06:41;97813.70;;;0.54;86.63
73106;BME280;61559;50.476;15.588;2022-11-15T01:09:13;97812.49;;;0.55;86.60
73106;BME280;61559;50.476;15.588;2022-11-15T01:11:44;97814.70;;;0.60;86.63
73106;BME280;61559;50.476;15.588;2022-11-15T01:14:15;97812.59;;;0.62;86.50
73106;BME280;61559;50.476;15.588;2022-11-15T01:16:53;97814.70;;;0.61;86.41
73106;BME280;61559;50.476;15.588;2022-11-15T01:19:24;97811.09;;;0.60;86.59
73106;BME280;61559;50.476;15.588;2022-11-15T01:21:55;97803.85;;;0.61;86.58
73106;BME280;61559;50.476;15.588;2022-11-15T01:24:26;97803.36;;;0.66;86.36
73106;BME280;61559;50.476;15.588;2022-11-15T01:26:57;97809.83;;;0.68;86.37
73106;BME280;61559;50.476;15.588;2022-11-15T01:29:27;97808.23;;;0.70;86.19
73106;BME280;61559;50.476;15.588;2022-11-15T01:31:58;97804.04;;;0.68;86.12
73106;BME280;61559;50.476;15.588;2022-11-15T01:34:29;97802.52;;;0.66;85.95
73106;BME280;61559;50.476;15.588;2022-11-15T01:37:00;97801.08;;;0.62;85.96
73106;BME280;61559;50.476;15.588;2022-11-15T01:39:30;97798.25;;;0.62;85.90
73106;BME280;61559;50.476;15.588;2022-11-15T01:42:01;97794.25;;;0.63;85.86
73106;BME280;61559;50.476;15.588;2022-11-15T01:44:41;97788.70;;;0.65;85.83
73106;BME280;61559;50.476;15.588;2022-11-15T01:47:15;97781.48;;;0.68;85.58
73106;BME280;61559;50.476;15.588;2022-11-15T01:49:52;97776.73;;;0.69;85.80
73106;BME280;61559;50.476;15.588;2022-11-15T01:52:26;97772.66;;;0.68;85.61
73106;BME280;61559;50.476;15.588;2022-11-15T01:55:02;97773.30;;;0.66;85.85
73106;BME280;61559;50.476;15.588;2022-11-15T01:57:35;97762.19;;;0.64;85.59
73106;BME280;61559;50.476;15.588;2022-11-15T02:00:09;97761.43;;;0.65;85.72
73106;BME280;61559;50.476;15.588;2022-11-15T02:02:40;97758.39;;;0.65;85.55
73106;BME280;61559;50.476;15.588;2022-11-15T02:05:11;97761.43;;;0.65;85.59
73106;BME280;61559;50.476;15.588;2022-11-15T02:07:42;97758.02;;;0.63;85.56
73106;BME280;61559;50.476;15.588;2022-11-15T02:10:17;97754.78;;;0.64;85.49
73106;BME280;61559;50.476;15.588;2022-11-15T02:12:49;97745.54;;;0.63;85.45
73106;BME280;61559;50.476;15.588;2022-11-15T02:15:21;97746.25;;;0.55;85.31
73106;BME280;61559;50.476;15.588;2022-11-15T02:18:09;97750.23;;;0.49;85.48
73106;BME280;61559;50.476;15.588;2022-11-15T02:20:48;97745.25;;;0.44;85.64
73106;BME280;61559;50.476;15.588;2022-11-15T02:30:02;97732.04;;;0.25;85.96
73106;BME280;61559;50.476;15.588;2022-11-15T02:32:39;97730.92;;;0.24;85.98
73106;BME280;61559;50.476;15.588;2022-11-15T02:35:19;97730.48;;;0.25;85.95
73106;BME280;61559;50.476;15.588;2022-11-15T02:37:58;97726.60;;;0.27;85.91
73106;BME280;61559;50.476;15.588;2022-11-15T02:40:37;97728.02;;;0.27;85.83
73106;BME280;61559;50.476;15.588;2022-11-15T02:43:12;97722.90;;;0.24;85.62
73106;BME280;61559;50.476;15.588;2022-11-15T02:46:05;97724.64;;;0.20;85.54
73106;BME280;61559;50.476;15.588;2022-11-15T02:48:40;97723.89;;;0.17;85.70
73106;BME280;61559;50.476;15.588;2022-11-15T02:51:13;97716.71;;;0.14;85.64
73106;BME280;61559;50.476;15.588;2022-11-15T02:53:44;97712.73;;;0.13;85.72
73106;BME280;61559;50.476;15.588;2022-11-15T02:56:15;97719.41;;;0.12;85.92
73106;BME280;61559;50.476;15.588;2022-11-15T02:59:18;97719.14;;;0.11;85.96
73106;BME280;61559;50.476;15.588;2022-11-15T03:02:06;97722.34;;;0.08;85.78
73106;BME280;61559;50.476;15.588;2022-11-15T03:04:45;97720.16;;;0.04;86.02
73106;BME280;61559;50.476;15.588;2022-11-15T03:07:27;97715.83;;;0.02;86.16
73106;BME280;61559;50.476;15.588;2022-11-15T03:10:05;97715.70;;;-0.02;86.40
73106;BME280;61559;50.476;15.588;2022-11-15T03:12:43;97713.30;;;-0.04;86.54
73106;BME280;61559;50.476;15.588;2022-11-15T03:15:20;97709.80;;;-0.04;86.68
73106;BME280;61559;50.476;15.588;2022-11-15T03:17:55;97707.52;;;-0.04;86.52
73106;BME280;61559;50.476;15.588;2022-11-15T03:20:29;97709.76;;;-0.04;86.51
73106;BME280;61559;50.476;15.588;2022-11-15T03:23:05;97707.54;;;-0.03;86.66
73106;BME280;61559;50.476;15.588;2022-11-15T03:25:40;97706.35;;;0.01;86.64
73106;BME280;61559;50.476;15.588;2022-11-15T03:28:15;97706.43;;;0.04;86.48
73106;BME280;61559;50.476;15.588;2022-11-15T03:30:49;97708.30;;;0.03;86.48
73106;BME280;61559;50.476;15.588;2022-11-15T03:33:22;97707.81;;;0.02;86.66
73106;BME280;61559;50.476;15.588;2022-11-15T03:35:54;97705.06;;;0.04;86.51
73106;BME280;61559;50.476;15.588;2022-11-15T03:38:26;97704.02;;;0.05;86.65
73106;BME280;61559;50.476;15.588;2022-11-15T03:41:03;97702.41;;;0.02;86.55
73106;BME280;61559;50.476;15.588;2022-11-15T03:43:39;97705.39;;;0.03;86.68
73106;BME280;61559;50.476;15.588;2022-11-15T03:46:16;97707.48;;;0.03;86.75
73106;BME280;61559;50.476;15.588;2022-11-15T03:48:52;97705.42;;;0.04;86.63
73106;BME280;61559;50.476;15.588;2022-11-15T03:51:24;97702.05;;;0.06;86.46
73106;BME280;61559;50.476;15.588;2022-11-15T03:53:56;97698.69;;;0.05;86.32
73106;BME280;61559;50.476;15.588;2022-11-15T03:56:27;97694.66;;;0.01;86.36
73106;BME280;61559;50.476;15.588;2022-11-15T03:58:58;97691.82;;;-0.05;86.45
73106;BME280;61559;50.476;15.588;2022-11-15T04:01:29;97688.20;;;-0.10;86.38
73106;BME280;61559;50.476;15.588;2022-11-15T04:04:00;97688.40;;;-0.10;86.61
73106;BME280;61559;50.476;15.588;2022-11-15T04:06:31;97684.61;;;-0.10;86.66
73106;BME280;61559;50.476;15.588;2022-11-15T04:09:02;97685.38;;;-0.09;86.56
73106;BME280;61559;50.476;15.588;2022-11-15T04:11:33;97681.22;;;-0.10;86.23
73106;BME280;61559;50.476;15.588;2022-11-15T04:14:04;97674.80;;;-0.09;86.16
73106;BME280;61559;50.476;15.588;2022-11-15T04:16:35;97669.33;;;-0.09;86.15
73106;BME280;61559;50.476;15.588;2022-11-15T04:19:12;97665.41;;;-0.11;86.34
73106;BME280;61559;50.476;15.588;2022-11-15T04:22:00;97660.60;;;-0.15;86.27
73106;BME280;61559;50.476;15.588;2022-11-15T04:24:49;97655.48;;;-0.18;86.40
73106;BME280;61559;50.476;15.588;2022-11-15T04:27:20;97646.92;;;-0.19;86.30
73106;BME280;61559;50.476;15.588;2022-11-15T04:29:51;97643.20;;;-0.21;86.23
73106;BME280;61559;50.476;15.588;2022-11-15T04:32:22;97638.85;;;-0.20;86.37
73106;BME280;61559;50.476;15.588;2022-11-15T04:34:53;97636.78;;;-0.20;86.22
73106;BME280;61559;50.476;15.588;2022-11-15T04:37:24;97637.48;;;-0.20;86.36
73106;BME280;61559;50.476;15.588;2022-11-15T04:39:55;97636.42;;;-0.20;86.30
73106;BME280;61559;50.476;15.588;2022-11-15T04:42:26;97634.41;;;-0.19;86.69
73106;BME280;61559;50.476;15.588;2022-11-15T04:44:57;97636.25;;;-0.19;86.52
73106;BME280;61559;50.476;15.588;2022-11-15T04:47:28;97640.60;;;-0.18;86.59
73106;BME280;61559;50.476;15.588;2022-11-15T04:49:59;97642.44;;;-0.17;86.69
73106;BME280;61559;50.476;15.588;2022-11-15T04:52:30;97648.07;;;-0.17;86.67
73106;BME280;61559;50.476;15.588;2022-11-15T04:55:01;97652.64;;;-0.16;86.60
73106;BME280;61559;50.476;15.588;2022-11-15T04:57:37;97654.33;;;-0.15;86.96
73106;BME280;61559;50.476;15.588;2022-11-15T05:00:11;97655.70;;;-0.13;86.69
73106;BME280;61559;50.476;15.588;2022-11-15T05:03:02;97656.85;;;-0.15;86.52
73106;BME280;61559;50.476;15.588;2022-11-15T05:05:51;97656.33;;;-0.15;86.63
73106;BME280;61559;50.476;15.588;2022-11-15T05:08:22;97658.05;;;-0.16;86.51
73106;BME280;61559;50.476;15.588;2022-11-15T05:10:53;97658.98;;;-0.18;86.59
73106;BME280;61559;50.476;15.588;2022-11-15T05:13:23;97654.59;;;-0.21;86.64
73106;BME280;61559;50.476;15.588;2022-11-15T05:15:54;97651.30;;;-0.21;86.50
73106;BME280;61559;50.476;15.588;2022-11-15T05:18:26;97646.53;;;-0.25;86.67
73106;BME280;61559;50.476;15.588;2022-11-15T05:21:02;97646.39;;;-0.39;86.52
73106;BME280;61559;50.476;15.588;2022-11-15T05:23:33;97649.71;;;-0.54;86.73
73106;BME280;61559;50.476;15.588;2022-11-15T05:26:06;97648.38;;;-0.65;86.85
73106;BME280;61559;50.476;15.588;2022-11-15T05:28:38;97652.23;;;-0.69;87.28
73106;BME280;61559;50.476;15.588;2022-11-15T05:31:10;97655.39;;;-0.67;87.53
73106;BME280;61559;50.476;15.588;2022-11-15T05:33:42;97657.15;;;-0.64;87.29
73106;BME280;61559;50.476;15.588;2022-11-15T05:36:17;97656.23;;;-0.61;87.27
73106;BME280;61559;50.476;15.588;2022-11-15T05:39:08;97653.20;;;-0.60;87.23
73106;BME280;61559;50.476;15.588;2022-11-15T05:41:42;97653.82;;;-0.63;87.07
73106;BME280;61559;50.476;15.588;2022-11-15T05:44:16;97651.70;;;-0.70;87.06
73106;BME280;61559;50.476;15.588;2022-11-15T05:46:49;97649.84;;;-0.75;87.21
73106;BME280;61559;50.476;15.588;2022-11-15T05:49:26;97652.95;;;-0.77;87.24
73106;BME280;61559;50.476;15.588;2022-11-15T05:52:01;97650.26;;;-0.78;87.39
73106;BME280;61559;50.476;15.588;2022-11-15T05:54:34;97648.68;;;-0.79;87.28
73106;BME280;61559;50.476;15.588;2022-11-15T05:57:07;97648.52;;;-0.79;87.17
73106;BME280;61559;50.476;15.588;2022-11-15T05:59:38;97644.58;;;-0.79;87.30
73106;BME280;61559;50.476;15.588;2022-11-15T06:02:11;97644.36;;;-0.77;87.45
73106;BME280;61559;50.476;15.588;2022-11-15T06:04:41;97645.64;;;-0.73;87.41
73106;BME280;61559;50.476;15.588;2022-11-15T06:07:12;97649.16;;;-0.67;87.33
73106;BME280;61559;50.476;15.588;2022-11-15T06:09:43;97651.54;;;-0.60;87.14
73106;BME280;61559;50.476;15.588;2022-11-15T06:12:14;97653.71;;;-0.57;86.86
73106;BME280;61559;50.476;15.588;2022-11-15T06:14:45;97653.80;;;-0.54;87.05
73106;BME280;61559;50.476;15.588;2022-11-15T06:17:16;97653.50;;;-0.44;87.11
73106;BME280;61559;50.476;15.588;2022-11-15T06:19:47;97658.15;;;-0.34;86.98
73106;BME280;61559;50.476;15.588;2022-11-15T06:22:18;97657.30;;;-0.26;86.75
73106;BME280;61559;50.476;15.588;2022-11-15T06:24:49;97652.27;;;-0.20;86.50
73106;BME280;61559;50.476;15.588;2022-11-15T06:27:19;97655.45;;;-0.13;86.56
73106;BME280;61559;50.476;15.588;2022-11-15T06:29:51;97656.79;;;-0.07;86.48
73106;BME280;61559;50.476;15.588;2022-11-15T06:32:22;97647.80;;;-0.06;86.16
73106;BME280;61559;50.476;15.588;2022-11-15T06:34:53;97650.88;;;-0.08;85.92
73106;BME280;61559;50.476;15.588;2022-11-15T06:37:24;97651.30;;;-0.10;85.80
73106;BME280;61559;50.476;15.588;2022-11-15T06:39:55;97654.87;;;-0.19;85.62
73106;BME280;61559;50.476;15.588;2022-11-15T06:42:26;97661.40;;;-0.26;86.00
73106;BME280;61559;50.476;15.588;2022-11-15T06:44:57;97666.09;;;-0.27;86.38
73106;BME280;61559;50.476;15.588;2022-11-15T06:47:28;97667.50;;;-0.31;86.42
73106;BME280;61559;50.476;15.588;2022-11-15T06:49:59;97667.24;;;-0.38;86.37
73106;BME280;61559;50.476;15.588;2022-11-15T06:52:31;97666.45;;;-0.41;86.65
73106;BME280;61559;50.476;15.588;2022-11-15T06:55:03;97667.81;;;-0.34;86.83
73106;BME280;61559;50.476;15.588;2022-11-15T06:57:34;97664.34;;;-0.26;87.03
73106;BME280;61559;50.476;15.588;2022-11-15T07:00:06;97659.55;;;-0.17;87.21
73106;BME280;61559;50.476;15.588;2022-11-15T07:02:37;97657.34;;;-0.09;87.14
73106;BME280;61559;50.476;15.588;2022-11-15T07:05:09;97657.19;;;-0.05;87.01
73106;BME280;61559;50.476;15.588;2022-11-15T07:07:40;97658.52;;;-0.03;87.05
73106;BME280;61559;50.476;15.588;2022-11-15T07:10:10;97659.55;;;-0.02;86.84
73106;BME280;61559;50.476;15.588;2022-11-15T07:12:41;97659.73;;;0.02;87.02
73106;BME280;61559;50.476;15.588;2022-11-15T07:15:12;97656.73;;;0.10;87.22
73106;BME280;61559;50.476;15.588;2022-11-15T07:17:43;97656.50;;;0.19;87.13
73106;BME280;61559;50.476;15.588;2022-11-15T07:20:15;97649.70;;;0.26;86.89
73106;BME280;61559;50.476;15.588;2022-11-15T07:22:47;97645.16;;;0.33;86.74
73106;BME280;61559;50.476;15.588;2022-11-15T07:25:18;97646.79;;;0.39;86.83
73106;BME280;61559;50.476;15.588;2022-11-15T07:27:56;97650.07;;;0.42;86.70
73106;BME280;61559;50.476;15.588;2022-11-15T07:30:28;97653.68;;;0.43;86.55
73106;BME280;61559;50.476;15.588;2022-11-15T07:33:00;97658.88;;;0.46;86.57
73106;BME280;61559;50.476;15.588;2022-11-15T07:35:32;97656.96;;;0.51;86.51
73106;BME280;61559;50.476;15.588;2022-11-15T07:38:03;97660.93;;;0.57;86.59
73106;BME280;61559;50.476;15.588;2022-11-15T07:40:35;97660.24;;;0.64;86.49
73106;BME280;61559;50.476;15.588;2022-11-15T07:43:09;97659.17;;;0.69;86.71
73106;BME280;61559;50.476;15.588;2022-11-15T07:45:43;97659.63;;;0.68;86.31
73106;BME280;61559;50.476;15.588;2022-11-15T07:48:14;97652.23;;;0.63;86.36
73106;BME280;61559;50.476;15.588;2022-11-15T07:50:46;97655.83;;;0.64;86.86
73106;BME280;61559;50.476;15.588;2022-11-15T07:53:17;97656.48;;;0.63;86.98
73106;BME280;61559;50.476;15.588;2022-11-15T07:55:48;97657.13;;;0.67;87.27
73106;BME280;61559;50.476;15.588;2022-11-15T07:58:19;97654.80;;;0.77;87.63
73106;BME280;61559;50.476;15.588;2022-11-15T08:00:50;97655.73;;;0.90;87.70
73106;BME280;61559;50.476;15.588;2022-11-15T08:03:21;97654.61;;;1.04;87.56
73106;BME280;61559;50.476;15.588;2022-11-15T08:05:52;97649.65;;;1.17;87.53
73106;BME280;61559;50.476;15.588;2022-11-15T08:08:24;97645.23;;;1.29;87.53
73106;BME280;61559;50.476;15.588;2022-11-15T08:10:56;97641.85;;;1.38;87.35
73106;BME280;61559;50.476;15.588;2022-11-15T08:13:27;97641.17;;;1.48;87.23
73106;BME280;61559;50.476;15.588;2022-11-15T08:16:00;97636.52;;;1.59;87.18
73106;BME280;61559;50.476;15.588;2022-11-15T08:18:32;97639.53;;;1.71;87.06
73106;BME280;61559;50.476;15.588;2022-11-15T08:21:04;97634.49;;;1.82;86.76
73106;BME280;61559;50.476;15.588;2022-11-15T08:23:34;97632.21;;;1.94;86.78
73106;BME280;61559;50.476;15.588;2022-11-15T08:26:06;97631.66;;;2.06;86.61
73106;BME280;61559;50.476;15.588;2022-11-15T08:28:37;97632.27;;;2.15;86.65
73106;BME280;61559;50.476;15.588;2022-11-15T08:31:14;97635.40;;;2.24;86.68
73106;BME280;61559;50.476;15.588;2022-11-15T08:33:46;97635.73;;;2.33;86.72
73106;BME280;61559;50.476;15.588;2022-11-15T08:36:17;97631.39;;;2.41;86.72
73106;BME280;61559;50.476;15.588;2022-11-15T08:38:47;97626.34;;;2.50;86.75
73106;BME280;61559;50.476;15.588;2022-11-15T08:41:22;97620.40;;;2.57;86.55
73106;BME280;61559;50.476;15.588;2022-11-15T08:43:55;97616.17;;;2.62;86.63
73106;BME280;61559;50.476;15.588;2022-11-15T08:46:26;97617.20;;;2.70;86.79
73106;BME280;61559;50.476;15.588;2022-11-15T08:48:56;97613.23;;;2.75;86.55
73106;BME280;61559;50.476;15.588;2022-11-15T08:51:27;97609.48;;;2.83;87.09
73106;BME280;61559;50.476;15.588;2022-11-15T08:53:58;97611.33;;;2.95;87.09
73106;BME280;61559;50.476;15.588;2022-11-15T08:56:29;97609.20;;;3.05;87.22
73106;BME280;61559;50.476;15.588;2022-11-15T08:59:00;97604.71;;;3.17;87.30
73106;BME280;61559;50.476;15.588;2022-11-15T09:01:34;97607.30;;;3.28;87.33
73106;BME280;61559;50.476;15.588;2022-11-15T09:04:05;97604.91;;;3.40;87.23
73106;BME280;61559;50.476;15.588;2022-11-15T09:06:36;97603.17;;;3.54;87.13
73106;BME280;61559;50.476;15.588;2022-11-15T09:09:11;97597.64;;;3.68;87.23
73106;BME280;61559;50.476;15.588;2022-11-15T09:11:43;97601.64;;;3.80;87.19
73106;BME280;61559;50.476;15.588;2022-11-15T09:14:14;97601.38;;;3.96;87.37
73106;BME280;61559;50.476;15.588;2022-11-15T09:16:46;97597.72;;;4.10;87.93
73106;BME280;61559;50.476;15.588;2022-11-15T09:19:17;97600.18;;;4.28;88.47
73106;BME280;61559;50.476;15.588;2022-11-15T09:21:48;97596.59;;;4.47;89.33
73106;BME280;61559;50.476;15.588;2022-11-15T09:24:19;97592.65;;;4.67;89.67
73106;BME280;61559;50.476;15.588;2022-11-15T09:26:50;97597.40;;;4.89;89.89
73106;BME280;61559;50.476;15.588;2022-11-15T09:29:22;97595.85;;;5.05;89.99
73106;BME280;61559;50.476;15.588;2022-11-15T09:31:54;97595.03;;;5.21;89.84
73106;BME280;61559;50.476;15.588;2022-11-15T09:34:25;97591.06;;;5.37;89.69
73106;BME280;61559;50.476;15.588;2022-11-15T09:36:56;97591.48;;;5.52;89.47
73106;BME280;61559;50.476;15.588;2022-11-15T09:39:26;97586.13;;;5.66;89.17
73106;BME280;61559;50.476;15.588;2022-11-15T09:42:27;97586.91;;;5.79;89.03
73106;BME280;61559;50.476;15.588;2022-11-15T09:45:13;97579.81;;;5.95;88.98
73106;BME280;61559;50.476;15.588;2022-11-15T09:47:56;97584.64;;;6.12;88.76
73106;BME280;61559;50.476;15.588;2022-11-15T09:50:34;97583.61;;;6.26;88.56
73106;BME280;61559;50.476;15.588;2022-11-15T09:53:12;97579.38;;;6.36;88.15
73106;BME280;61559;50.476;15.588;2022-11-15T09:55:59;97577.72;;;6.41;87.82
73106;BME280;61559;50.476;15.588;2022-11-15T09:58:38;97577.32;;;6.48;87.94
73106;BME280;61559;50.476;15.588;2022-11-15T10:01:16;97576.88;;;6.58;87.86
73106;BME280;61559;50.476;15.588;2022-11-15T10:03:50;97571.69;;;6.67;87.68
73106;BME280;61559;50.476;15.588;2022-11-15T10:06:24;97570.94;;;6.73;87.30
73106;BME280;61559;50.476;15.588;2022-11-15T10:09:00;97567.92;;;6.75;87.17
73106;BME280;61559;50.476;15.588;2022-11-15T10:11:34;97566.36;;;6.75;86.72
73106;BME280;61559;50.476;15.588;2022-11-15T10:14:11;97565.33;;;6.74;86.70
73106;BME280;61559;50.476;15.588;2022-11-15T10:17:09;97566.63;;;6.77;86.67
73106;BME280;61559;50.476;15.588;2022-11-15T10:19:50;97563.02;;;6.79;86.61
73106;BME280;61559;50.476;15.588;2022-11-15T10:22:28;97562.23;;;6.83;86.58
73106;BME280;61559;50.476;15.588;2022-11-15T10:25:15;97568.16;;;6.90;86.64
73106;BME280;61559;50.476;15.588;2022-11-15T10:27:53;97558.94;;;6.98;86.44
73106;BME280;61559;50.476;15.588;2022-11-15T10:30:29;97552.54;;;7.01;86.01
73106;BME280;61559;50.476;15.588;2022-11-15T10:33:13;97546.05;;;7.00;85.80
73106;BME280;61559;50.476;15.588;2022-11-15T10:35:47;97541.27;;;6.99;85.97
73106;BME280;61559;50.476;15.588;2022-11-15T10:38:17;97537.45;;;6.97;86.00
73106;BME280;61559;50.476;15.588;2022-11-15T10:40:48;97526.72;;;6.99;85.86
73106;BME280;61559;50.476;15.588;2022-11-15T10:43:37;97521.05;;;7.02;85.96
73106;BME280;61559;50.476;15.588;2022-11-15T10:46:19;97517.31;;;7.07;86.11
73106;BME280;61559;50.476;15.588;2022-11-15T10:49:16;97513.94;;;7.10;85.76
73106;BME280;61559;50.476;15.588;2022-11-15T10:51:49;97514.87;;;7.09;85.41
73106;BME280;61559;50.476;15.588;2022-11-15T10:54:25;97510.77;;;7.06;85.37
73106;BME280;61559;50.476;15.588;2022-11-15T10:56:59;97512.83;;;7.03;85.38
73106;BME280;61559;50.476;15.588;2022-11-15T10:59:35;97511.81;;;7.02;85.27
73106;BME280;61559;50.476;15.588;2022-11-15T11:02:26;97510.52;;;7.01;85.50
73106;BME280;61559;50.476;15.588;2022-11-15T11:04:59;97505.48;;;7.04;85.49
73106;BME280;61559;50.476;15.588;2022-11-15T11:07:32;97507.75;;;7.06;85.49
73106;BME280;61559;50.476;15.588;2022-11-15T11:10:17;97503.44;;;7.10;85.58
73106;BME280;61559;50.476;15.588;2022-11-15T11:13:20;97499.05;;;7.14;85.37
73106;BME280;61559;50.476;15.588;2022-11-15T11:15:55;97496.95;;;7.15;85.34
73106;BME280;61559;50.476;15.588;2022-11-15T11:18:33;97493.98;;;7.14;85.77
73106;BME280;61559;50.476;15.588;2022-11-15T11:21:09;97487.69;;;7.14;85.31
73106;BME280;61559;50.476;15.588;2022-11-15T11:23:48;97486.05;;;7.13;85.23
73106;BME280;61559;50.476;15.588;2022-11-15T11:26:38;97481.73;;;7.15;85.32
73106;BME280;61559;50.476;15.588;2022-11-15T11:29:24;97480.83;;;7.17;85.30
73106;BME280;61559;50.476;15.588;2022-11-15T11:32:01;97480.13;;;7.16;85.37
73106;BME280;61559;50.476;15.588;2022-11-15T11:34:44;97473.94;;;7.13;85.09
73106;BME280;61559;50.476;15.588;2022-11-15T11:37:27;97468.30;;;7.10;85.24
73106;BME280;61559;50.476;15.588;2022-11-15T11:40:10;97466.38;;;7.06;85.15
73106;BME280;61559;50.476;15.588;2022-11-15T11:42:52;97460.88;;;7.04;85.25
73106;BME280;61559;50.476;15.588;2022-11-15T11:45:43;97461.13;;;7.07;85.35
73106;BME280;61559;50.476;15.588;2022-11-15T11:48:33;97458.73;;;7.13;85.23
73106;BME280;61559;50.476;15.588;2022-11-15T11:51:15;97454.34;;;7.14;84.82
73106;BME280;61559;50.476;15.588;2022-11-15T11:53:52;97444.00;;;7.11;84.88
73106;BME280;61559;50.476;15.588;2022-11-15T11:56:28;97439.98;;;7.07;85.11
73106;BME280;61559;50.476;15.588;2022-11-15T11:59:17;97437.96;;;7.05;85.17
73106;BME280;61559;50.476;15.588;2022-11-15T12:01:49;97437.50;;;7.07;85.16
73106;BME280;61559;50.476;15.588;2022-11-15T12:04:26;97437.34;;;7.11;85.18
73106;BME280;61559;50.476;15.588;2022-11-15T12:07:02;97433.64;;;7.14;84.97
73106;BME280;61559;50.476;15.588;2022-11-15T12:09:39;97426.11;;;7.14;84.84
73106;BME280;61559;50.476;15.588;2022-11-15T12:12:21;97426.80;;;7.16;85.10
73106;BME280;61559;50.476;15.588;2022-11-15T12:14:56;97420.81;;;7.21;85.22
73106;BME280;61559;50.476;15.588;2022-11-15T12:17:30;97419.39;;;7.26;85.25
73106;BME280;61559;50.476;15.588;2022-11-15T12:20:17;97412.99;;;7.28;84.95
73106;BME280;61559;50.476;15.588;2022-11-15T12:22:54;97409.33;;;7.32;85.06
73106;BME280;61559;50.476;15.588;2022-11-15T12:25:31;97404.59;;;7.39;84.95
73106;BME280;61559;50.476;15.588;2022-11-15T12:28:13;97400.70;;;7.41;84.54
73106;BME280;61559;50.476;15.588;2022-11-15T12:30:50;97401.77;;;7.42;84.57
73106;BME280;61559;50.476;15.588;2022-11-15T12:33:41;97397.96;;;7.44;84.66
73106;BME280;61559;50.476;15.588;2022-11-15T12:36:33;97396.86;;;7.48;84.64
73106;BME280;61559;50.476;15.588;2022-11-15T12:39:06;97394.71;;;7.48;84.55
73106;BME280;61559;50.476;15.588;2022-11-15T12:41:39;97394.48;;;7.49;84.51
73106;BME280;61559;50.476;15.588;2022-11-15T12:47:21;97384.96;;;7.56;84.34
73106;BME280;61559;50.476;15.588;2022-11-15T12:49:53;97382.45;;;7.51;84.06
73106;BME280;61559;50.476;15.588;2022-11-15T12:52:24;97381.04;;;7.43;84.17
73106;BME280;61559;50.476;15.588;2022-11-15T12:55:00;97379.09;;;7.40;84.41
73106;BME280;61559;50.476;15.588;2022-11-15T12:57:39;97370.41;;;7.41;84.29
73106;BME280;61559;50.476;15.588;2022-11-15T13:00:38;97367.21;;;7.40;84.28
73106;BME280;61559;50.476;15.588;2022-11-15T13:03:27;97367.54;;;7.41;84.51
73106;BME280;61559;50.476;15.588;2022-11-15T13:08:56;97365.16;;;7.47;84.56
73106;BME280;61559;50.476;15.588;2022-11-15T13:11:48;97363.30;;;7.48;84.54
73106;BME280;61559;50.476;15.588;2022-11-15T13:14:43;97359.05;;;7.48;84.63
73106;BME280;61559;50.476;15.588;2022-11-15T13:17:35;97356.57;;;7.46;84.43
73106;BME280;61559;50.476;15.588;2022-11-15T13:20:21;97351.76;;;7.41;84.48
73106;BME280;61559;50.476;15.588;2022-11-15T13:22:59;97353.56;;;7.38;84.51
73106;BME280;61559;50.476;15.588;2022-11-15T13:28:36;97344.47;;;7.30;84.53
73106;BME280;61559;50.476;15.588;2022-11-15T13:31:21;97342.50;;;7.26;84.66
73106;BME280;61559;50.476;15.588;2022-11-15T13:33:54;97338.59;;;7.21;84.86
73106;BME280;61559;50.476;15.588;2022-11-15T13:36:29;97337.40;;;7.20;84.95
73106;BME280;61559;50.476;15.588;2022-11-15T13:39:05;97331.62;;;7.17;84.94
73106;BME280;61559;50.476;15.588;2022-11-15T13:41:44;97323.48;;;7.14;85.10
73106;BME280;61559;50.476;15.588;2022-11-15T13:44:23;97319.06;;;7.12;85.17
73106;BME280;61559;50.476;15.588;2022-11-15T13:47:05;97317.55;;;7.11;85.44
73106;BME280;61559;50.476;15.588;2022-11-15T13:49:36;97311.00;;;7.10;85.43
73106;BME280;61559;50.476;15.588;2022-11-15T13:52:06;97312.79;;;7.11;85.52
73106;BME280;61559;50.476;15.588;2022-11-15T13:54:42;97308.86;;;7.10;85.60